Time;durP1;ratioP1;P1;durP2;ratioP2;P2;SDS_P1;SDS_P2;PMS_P1;PMS_P2;Temp;Humidity;BMP_temperature;BMP_pressure;BME280_temperature;BME280_humidity;BME280_pressure;Samples;Min_cycle;Max_cycle;Signal;HPM_P1;HPM_P2
2022/04/28 00:00:02;;;;;;;19.88;4.40;;;6.60;82.90;;;;;;5070690;28;20036;-50
2022/04/28 00:02:28;;;;;;;8.23;3.65;;;6.60;83.00;;;;;;5070723;28;20099;-49
2022/04/28 00:04:55;;;;;;;7.53;3.83;;;6.60;83.30;;;;;;5070854;28;20025;-44
2022/04/28 00:07:21;;;;;;;10.63;4.00;;;6.60;82.90;;;;;;5071127;28;20135;-46
2022/04/28 00:09:46;;;;;;;13.15;3.88;;;6.60;83.40;;;;;;5071034;28;20551;-56
2022/04/28 00:12:12;;;;;;;9.13;3.50;;;6.60;83.20;;;;;;5070486;28;20032;-52
2022/04/28 00:14:38;;;;;;;12.85;3.63;;;6.60;83.20;;;;;;5070833;28;20082;-47
2022/04/28 00:17:04;;;;;;;7.60;3.65;;;6.50;83.40;;;;;;5070751;28;20032;-53
2022/04/28 00:19:30;;;;;;;10.75;3.58;;;6.50;83.40;;;;;;5070613;28;20511;-44
2022/04/28 00:21:55;;;;;;;9.80;4.20;;;6.50;83.70;;;;;;5070407;28;20093;-56
2022/04/28 00:24:21;;;;;;;11.73;3.50;;;6.40;84.00;;;;;;5069523;28;20024;-49
2022/04/28 00:26:47;;;;;;;7.32;3.13;;;6.40;84.10;;;;;;5070864;28;20029;-47
2022/04/28 00:29:12;;;;;;;11.88;3.75;;;6.40;84.30;;;;;;5070675;28;20062;-45
2022/04/28 00:31:38;;;;;;;9.70;3.50;;;6.40;84.50;;;;;;5070368;28;20027;-52
2022/04/28 00:34:04;;;;;;;8.90;3.70;;;6.40;84.30;;;;;;5070615;28;20063;-48
2022/04/28 00:36:30;;;;;;;8.85;4.00;;;6.40;84.20;;;;;;5070683;28;20091;-53
2022/04/28 00:38:56;;;;;;;10.70;3.75;;;6.40;84.50;;;;;;5070647;28;20546;-51
2022/04/28 00:41:21;;;;;;;11.57;3.53;;;6.40;84.50;;;;;;5070182;28;20393;-50
2022/04/28 00:43:49;;;;;;;8.88;3.22;;;6.40;84.30;;;;;;5070613;28;20067;-50
2022/04/28 00:46:15;;;;;;;10.65;3.40;;;6.40;84.40;;;;;;5070403;28;20024;-48
2022/04/28 00:51:26;;;;;;;6.28;3.10;;;6.40;85.10;;;;;;5070479;28;20019;-54
2022/04/28 00:53:53;;;;;;;11.23;3.97;;;6.40;85.60;;;;;;5070317;28;20029;-50
2022/04/28 00:56:18;;;;;;;8.30;3.33;;;6.30;85.30;;;;;;5070834;28;20037;-51
2022/04/28 00:58:45;;;;;;;10.55;3.47;;;6.40;86.00;;;;;;5074164;28;20031;-57
2022/04/28 01:01:11;;;;;;;9.07;3.35;;;6.40;85.20;;;;;;5073747;28;20017;-44
2022/04/28 01:03:37;;;;;;;9.25;3.67;;;6.40;85.00;;;;;;5074014;28;20031;-51
2022/04/28 01:06:03;;;;;;;10.68;3.53;;;6.40;84.90;;;;;;5074002;28;20024;-52
2022/04/28 01:08:28;;;;;;;13.60;4.00;;;6.40;85.10;;;;;;5073986;28;20032;-57
2022/04/28 01:10:55;;;;;;;8.60;3.70;;;6.40;84.80;;;;;;5073682;28;20048;-52
2022/04/28 01:13:20;;;;;;;9.48;3.20;;;6.40;85.10;;;;;;5073842;28;20078;-49
2022/04/28 01:15:48;;;;;;;7.93;3.47;;;6.40;85.20;;;;;;5074155;28;20044;-48
2022/04/28 01:18:15;;;;;;;13.52;3.75;;;6.30;85.20;;;;;;5073760;28;20027;-52
2022/04/28 01:20:41;;;;;;;12.77;3.83;;;6.30;86.50;;;;;;5060088;28;20059;-44
2022/04/28 01:23:07;;;;;;;8.25;3.20;;;6.20;86.20;;;;;;5073544;28;20016;-53
2022/04/28 01:25:33;;;;;;;11.43;4.03;;;6.20;86.30;;;;;;5073732;28;20146;-53
2022/04/28 01:27:59;;;;;;;9.52;3.22;;;6.20;86.30;;;;;;5073532;28;20020;-49
2022/04/28 01:30:25;;;;;;;8.25;3.47;;;6.20;86.20;;;;;;5073242;28;20035;-52
2022/04/28 01:32:52;;;;;;;10.43;3.55;;;6.20;86.50;;;;;;5073641;28;20032;-47
2022/04/28 01:35:18;;;;;;;9.25;3.72;;;6.20;86.40;;;;;;5073426;28;20420;-55
2022/04/28 01:37:43;;;;;;;13.23;3.75;;;6.20;86.40;;;;;;5073474;28;20017;-49
2022/04/28 01:40:11;;;;;;;9.35;3.60;;;6.20;86.60;;;;;;5073090;28;20441;-54
2022/04/28 01:42:42;;;;;;;11.85;3.58;;;6.10;86.60;;;;;;5073203;28;20029;-43
2022/04/28 01:45:09;;;;;;;7.45;3.38;;;6.20;86.90;;;;;;5073280;28;20039;-43
2022/04/28 01:47:35;;;;;;;10.00;3.60;;;6.20;87.10;;;;;;5073164;28;20368;-44
2022/04/28 01:50:02;;;;;;;16.13;3.90;;;6.20;86.90;;;;;;5073141;28;20159;-45
2022/04/28 01:55:12;;;;;;;10.20;3.75;;;6.10;87.20;;;;;;5073002;28;20066;-54
2022/04/28 01:57:39;;;;;;;8.30;3.90;;;6.10;87.30;;;;;;5073366;28;20107;-55
2022/04/28 02:00:06;;;;;;;11.88;3.83;;;6.10;87.70;;;;;;5072845;28;20154;-44
2022/04/28 02:02:33;;;;;;;10.32;3.58;;;6.00;87.60;;;;;;5071722;28;20028;-52
2022/04/28 02:04:59;;;;;;;8.30;3.20;;;6.00;88.20;;;;;;5072945;28;20103;-47
2022/04/28 02:07:28;;;;;;;11.25;4.35;;;5.90;88.30;;;;;;5071525;28;20108;-54
2022/04/28 02:09:55;;;;;;;10.77;4.10;;;5.90;88.20;;;;;;5071987;28;20115;-44
2022/04/28 02:12:20;;;;;;;9.40;3.33;;;5.80;88.30;;;;;;5072371;28;20032;-45
2022/04/28 02:14:46;;;;;;;13.10;3.38;;;5.80;88.80;;;;;;5072708;28;20055;-42
2022/04/28 02:17:19;;;;;;;11.52;3.88;;;5.80;88.40;;;;;;5072651;28;20032;-43
2022/04/28 02:19:45;;;;;;;9.40;3.60;;;5.80;88.90;;;;;;5072476;28;20369;-43
2022/04/28 02:22:10;;;;;;;8.07;3.20;;;5.80;88.70;;;;;;5072325;28;20062;-43
2022/04/28 02:24:36;;;;;;;8.80;3.65;;;5.80;88.70;;;;;;5072482;28;20063;-48
2022/04/28 02:27:02;;;;;;;13.50;3.47;;;5.80;89.40;;;;;;5072542;28;20021;-48
2022/04/28 02:29:27;;;;;;;9.77;3.17;;;5.80;89.20;;;;;;5072263;28;20017;-46
2022/04/28 02:31:53;;;;;;;8.25;3.42;;;5.80;89.20;;;;;;5072214;28;20042;-46
2022/04/28 02:34:19;;;;;;;13.13;3.97;;;5.80;89.50;;;;;;5072223;28;20046;-48
2022/04/28 02:36:45;;;;;;;7.05;3.38;;;5.70;89.70;;;;;;5072330;28;20736;-50
2022/04/28 02:39:12;;;;;;;7.78;3.22;;;5.60;89.80;;;;;;5072228;28;20028;-45
2022/04/28 02:41:38;;;;;;;10.15;3.60;;;5.60;90.00;;;;;;5071920;28;20028;-44
2022/04/28 02:44:04;;;;;;;9.10;3.40;;;5.60;90.20;;;;;;5071954;28;20625;-50
2022/04/28 02:46:31;;;;;;;9.85;3.97;;;5.50;90.10;;;;;;5072075;28;20063;-49
2022/04/28 02:48:57;;;;;;;12.38;4.05;;;5.50;90.30;;;;;;5072043;28;20464;-52
2022/04/28 02:51:22;;;;;;;6.38;3.55;;;5.50;90.30;;;;;;5071653;28;20032;-48
2022/04/28 02:53:48;;;;;;;8.23;3.40;;;5.40;90.30;;;;;;5072073;28;20024;-53
2022/04/28 02:56:14;;;;;;;14.63;3.67;;;5.40;90.40;;;;;;5071727;28;20033;-43
2022/04/28 02:58:39;;;;;;;8.18;3.35;;;5.40;90.50;;;;;;5071769;28;20056;-44
2022/04/28 03:01:05;;;;;;;8.60;3.35;;;5.30;90.60;;;;;;5071580;28;20028;-48
2022/04/28 03:03:31;;;;;;;11.48;4.10;;;5.30;90.60;;;;;;5071772;28;20142;-45
2022/04/28 03:11:25;;;;;;;9.98;3.70;;;5.20;90.90;;;;;;5071220;28;20043;-45
2022/04/28 03:13:51;;;;;;;8.63;4.35;;;5.10;91.00;;;;;;5071498;28;20028;-53
2022/04/28 03:16:17;;;;;;;6.25;3.47;;;5.10;91.10;;;;;;5071086;28;20487;-48
2022/04/28 03:18:44;;;;;;;11.63;3.88;;;5.10;91.20;;;;;;5071593;28;20016;-53
2022/04/28 03:21:11;;;;;;;9.48;3.97;;;5.10;91.30;;;;;;5071088;28;20044;-51
2022/04/28 03:23:37;;;;;;;10.15;3.75;;;5.10;91.40;;;;;;5071624;28;20032;-54
2022/04/28 03:26:03;;;;;;;10.13;3.90;;;5.10;91.50;;;;;;5071509;28;20024;-49
2022/04/28 03:28:34;;;;;;;11.73;4.32;;;5.00;91.60;;;;;;5071389;28;20528;-53
2022/04/28 03:31:00;;;;;;;10.60;4.30;;;5.00;91.50;;;;;;5071012;28;20074;-47
2022/04/28 03:33:26;;;;;;;8.38;3.88;;;5.00;91.60;;;;;;5071453;28;20028;-51
2022/04/28 03:35:52;;;;;;;11.82;4.20;;;5.00;91.70;;;;;;5070348;28;20530;-47
2022/04/28 03:38:17;;;;;;;9.40;4.25;;;5.10;91.60;;;;;;5071292;28;20021;-43
2022/04/28 03:40:43;;;;;;;8.95;3.92;;;5.10;91.40;;;;;;5071006;28;20185;-54
2022/04/28 03:43:09;;;;;;;8.43;3.92;;;5.10;91.60;;;;;;5071244;28;20029;-45
2022/04/28 03:45:36;;;;;;;7.45;4.03;;;5.10;91.40;;;;;;5070952;28;20126;-53
2022/04/28 03:48:03;;;;;;;12.75;4.28;;;5.10;91.60;;;;;;5071152;28;20101;-48
2022/04/28 03:50:29;;;;;;;11.32;4.30;;;5.10;91.60;;;;;;5070742;28;20031;-49
2022/04/28 03:52:56;;;;;;;9.85;4.00;;;5.20;91.60;;;;;;5070969;28;20039;-49
2022/04/28 03:55:22;;;;;;;6.95;3.47;;;5.10;91.60;;;;;;5070217;28;20040;-45
2022/04/28 03:57:48;;;;;;;10.75;3.85;;;5.10;91.50;;;;;;5070714;28;20023;-49
2022/04/28 04:00:14;;;;;;;9.68;4.03;;;5.20;91.50;;;;;;5070683;28;20027;-52
2022/04/28 04:02:40;;;;;;;7.57;3.47;;;5.20;91.50;;;;;;5071074;28;20498;-45
2022/04/28 04:05:06;;;;;;;12.68;4.38;;;5.20;91.50;;;;;;5070998;28;20024;-52
2022/04/28 04:07:34;;;;;;;10.15;4.07;;;5.20;91.70;;;;;;5071144;28;20059;-49
2022/04/28 04:09:59;;;;;;;7.78;3.90;;;5.20;91.70;;;;;;5070708;28;20055;-50
2022/04/28 04:12:26;;;;;;;13.82;3.83;;;5.20;91.60;;;;;;5070820;28;20033;-52
2022/04/28 04:14:52;;;;;;;10.20;4.35;;;5.20;91.70;;;;;;5070757;28;20024;-48
2022/04/28 04:17:19;;;;;;;8.77;4.03;;;5.30;91.50;;;;;;5070831;28;20508;-48
2022/04/28 04:19:45;;;;;;;10.25;4.30;;;5.30;91.40;;;;;;5070815;28;20037;-49
2022/04/28 04:22:11;;;;;;;7.05;3.88;;;5.30;91.50;;;;;;5070447;28;20170;-54
2022/04/28 04:24:36;;;;;;;8.45;4.03;;;5.30;91.50;;;;;;5070768;28;20032;-45
2022/04/28 04:27:02;;;;;;;11.43;4.35;;;5.30;91.40;;;;;;5070469;28;20395;-48
2022/04/28 04:29:28;;;;;;;10.48;4.25;;;5.40;91.40;;;;;;5070687;28;20025;-54
2022/04/28 04:34:37;;;;;;;10.93;4.00;;;5.40;91.40;;;;;;5074658;28;20059;-49
2022/04/28 04:37:03;;;;;;;13.48;5.05;;;5.40;91.50;;;;;;5074523;28;20475;-45
2022/04/28 04:39:29;;;;;;;10.90;4.18;;;5.50;91.40;;;;;;5074563;28;20035;-49
2022/04/28 04:41:55;;;;;;;11.82;4.03;;;5.50;91.30;;;;;;5074174;28;20104;-45
2022/04/28 04:44:21;;;;;;;13.40;4.82;;;5.60;91.10;;;;;;5074311;28;20032;-46
2022/04/28 04:46:46;;;;;;;10.77;4.03;;;5.60;91.10;;;;;;5074295;28;20029;-44
2022/04/28 04:49:12;;;;;;;15.55;5.15;;;5.60;90.90;;;;;;5074230;28;20115;-47
2022/04/28 04:51:38;;;;;;;12.38;4.68;;;5.70;91.00;;;;;;5073976;28;20100;-50
2022/04/28 04:54:03;;;;;;;11.93;4.78;;;5.70;91.10;;;;;;5074319;28;20427;-44
2022/04/28 04:56:29;;;;;;;13.30;3.97;;;5.70;91.00;;;;;;5074108;28;20036;-48
2022/04/28 04:58:55;;;;;;;8.65;4.18;;;5.70;91.00;;;;;;5073630;28;20537;-47
2022/04/28 05:01:20;;;;;;;15.45;5.57;;;5.80;90.90;;;;;;5071282;28;20043;-54
2022/04/28 05:03:46;;;;;;;10.00;4.18;;;5.80;91.20;;;;;;5073106;28;20047;-44
2022/04/28 05:06:11;;;;;;;10.25;4.22;;;5.80;90.90;;;;;;5071745;28;20866;-49
2022/04/28 05:08:37;;;;;;;7.13;3.70;;;5.90;91.00;;;;;;5072566;28;20021;-47
2022/04/28 05:11:03;;;;;;;9.68;3.60;;;6.00;90.90;;;;;;5071028;28;20517;-55
2022/04/28 05:13:28;;;;;;;11.70;4.60;;;6.00;90.70;;;;;;5071764;28;20121;-48
2022/04/28 05:15:54;;;;;;;10.27;4.90;;;6.10;90.60;;;;;;5073576;28;20086;-48
2022/04/28 05:18:19;;;;;;;9.07;4.30;;;6.10;90.10;;;;;;5073926;28;20689;-55
2022/04/28 05:20:45;;;;;;;12.65;4.97;;;6.20;90.30;;;;;;5073512;28;20044;-52
2022/04/28 05:23:11;;;;;;;8.70;3.95;;;6.30;89.70;;;;;;5072327;28;20058;-55
2022/04/28 05:25:36;;;;;;;9.52;4.00;;;6.40;90.00;;;;;;5073069;28;20040;-54
2022/04/28 05:28:02;;;;;;;11.93;4.38;;;6.50;89.90;;;;;;5073621;28;20032;-46
2022/04/28 05:30:28;;;;;;;10.65;4.20;;;6.70;88.80;;;;;;5073291;28;20391;-44
2022/04/28 05:32:54;;;;;;;12.82;3.97;;;6.80;88.50;;;;;;5073555;28;20024;-45
2022/04/28 05:35:19;;;;;;;12.02;3.65;;;6.90;87.50;;;;;;5073604;28;20036;-47
2022/04/28 05:37:45;;;;;;;10.88;4.30;;;7.00;87.70;;;;;;5073509;28;20031;-43
2022/04/28 05:40:13;;;;;;;13.00;3.95;;;7.20;86.60;;;;;;5073378;28;20036;-47
2022/04/28 05:45:42;;;;;;;10.05;4.03;;;7.50;87.10;;;;;;5073246;28;20116;-51
2022/04/28 05:48:09;;;;;;;12.48;4.10;;;7.80;86.00;;;;;;5073186;28;20384;-46
2022/04/28 05:50:38;;;;;;;10.05;3.83;;;8.00;84.10;;;;;;5069358;28;20037;-52
2022/04/28 05:53:03;;;;;;;9.18;3.20;;;8.20;83.60;;;;;;5070151;28;20020;-51
2022/04/28 05:55:29;;;;;;;10.07;3.60;;;8.40;83.60;;;;;;5071236;28;20453;-56
2022/04/28 05:57:58;;;;;;;9.68;3.50;;;8.70;82.80;;;;;;5071069;28;20487;-53
2022/04/28 06:00:25;;;;;;;9.07;3.20;;;8.90;81.90;;;;;;5070891;28;20021;-47
2022/04/28 06:02:51;;;;;;;8.82;3.72;;;9.10;79.70;;;;;;5070997;28;20024;-47
2022/04/28 06:05:16;;;;;;;8.75;3.25;;;9.30;80.30;;;;;;5070791;28;20024;-46
2022/04/28 06:07:42;;;;;;;10.43;3.83;;;9.60;79.30;;;;;;5068023;28;20444;-49
2022/04/28 06:10:08;;;;;;;9.00;3.65;;;9.80;76.80;;;;;;5075366;28;20539;-50
2022/04/28 06:12:34;;;;;;;10.60;3.47;;;9.90;76.30;;;;;;5089614;28;20028;-42
2022/04/28 06:14:59;;;;;;;9.48;3.40;;;10.00;75.90;;;;;;5092076;28;20027;-56
2022/04/28 06:17:25;;;;;;;10.85;3.92;;;10.10;75.10;;;;;;5092466;28;20432;-42
2022/04/28 06:19:51;;;;;;;11.85;3.78;;;10.30;75.00;;;;;;5091617;28;20043;-51
2022/04/28 06:22:16;;;;;;;10.60;3.58;;;10.50;74.60;;;;;;5092599;28;20114;-56
2022/04/28 06:24:42;;;;;;;11.68;3.58;;;10.90;77.20;;;;;;5092680;28;20474;-53
2022/04/28 06:27:08;;;;;;;12.07;3.55;;;11.30;73.90;;;;;;5091444;28;20016;-53
2022/04/28 06:29:33;;;;;;;11.02;3.55;;;11.60;71.40;;;;;;5090575;28;20383;-44
2022/04/28 06:31:59;;;;;;;11.63;2.97;;;12.10;72.10;;;;;;5090589;28;20113;-52
2022/04/28 06:34:25;;;;;;;6.68;3.05;;;12.50;67.70;;;;;;5090528;28;20024;-43
2022/04/28 06:36:50;;;;;;;6.80;3.28;;;12.50;67.90;;;;;;5091585;28;20733;-45
2022/04/28 06:39:16;;;;;;;7.45;2.95;;;12.20;65.50;;;;;;5091649;28;20020;-52
2022/04/28 06:41:41;;;;;;;9.65;3.70;;;12.40;66.30;;;;;;5091769;28;20024;-52
2022/04/28 06:44:07;;;;;;;10.20;3.70;;;12.10;65.90;;;;;;5092481;28;20027;-57
2022/04/28 06:46:33;;;;;;;12.02;4.15;;;12.10;66.10;;;;;;5092294;28;20020;-43
2022/04/28 06:48:58;;;;;;;8.70;4.00;;;12.00;67.70;;;;;;5092269;28;20054;-54
2022/04/28 06:51:25;;;;;;;20.23;4.10;;;11.90;68.00;;;;;;5092248;28;20148;-54
2022/04/28 06:53:50;;;;;;;10.70;3.70;;;11.80;67.50;;;;;;5091970;28;20102;-51
2022/04/28 06:56:17;;;;;;;11.43;3.90;;;11.90;68.90;;;;;;5091848;28;20074;-49
2022/04/28 06:58:43;;;;;;;10.43;3.83;;;11.80;68.20;;;;;;5092238;28;20032;-50
2022/04/28 07:01:09;;;;;;;9.73;3.80;;;11.90;68.20;;;;;;5091986;28;20467;-46
2022/04/28 07:03:34;;;;;;;10.60;4.38;;;11.90;67.90;;;;;;5092034;28;20050;-43
2022/04/28 07:06:00;;;;;;;11.07;4.18;;;11.80;69.00;;;;;;5092094;28;20031;-48
2022/04/28 07:08:26;;;;;;;9.43;3.30;;;12.10;68.10;;;;;;5091732;28;20546;-52
2022/04/28 07:10:52;;;;;;;11.27;4.38;;;12.30;68.80;;;;;;5091890;28;20107;-49
2022/04/28 07:13:18;;;;;;;14.70;3.97;;;12.20;66.80;;;;;;5091786;28;20391;-57
2022/04/28 07:15:43;;;;;;;11.70;3.50;;;12.40;67.20;;;;;;5092058;28;20036;-45
2022/04/28 07:18:11;;;;;;;10.77;4.00;;;12.40;67.90;;;;;;5091516;28;20021;-50
2022/04/28 07:20:37;;;;;;;9.57;3.30;;;12.60;68.80;;;;;;5091500;28;20094;-44
2022/04/28 07:23:03;;;;;;;11.43;3.83;;;12.60;66.40;;;;;;5091664;28;20081;-49
2022/04/28 07:25:30;;;;;;;12.13;3.83;;;12.50;67.20;;;;;;5090177;28;20513;-53
2022/04/28 07:27:56;;;;;;;12.57;4.05;;;12.40;66.90;;;;;;5091639;28;20024;-44
2022/04/28 07:30:22;;;;;;;12.30;3.85;;;12.40;68.00;;;;;;5091342;28;20036;-48
2022/04/28 07:32:49;;;;;;;10.82;4.43;;;12.70;67.30;;;;;;5091526;28;20506;-49
2022/04/28 07:35:16;;;;;;;7.57;3.90;;;12.30;65.60;;;;;;5091330;28;20032;-56
2022/04/28 07:37:41;;;;;;;8.63;3.97;;;12.30;67.40;;;;;;5077465;28;20043;-52
2022/04/28 07:40:08;;;;;;;8.93;4.18;;;12.30;67.30;;;;;;5069424;28;20028;-54
2022/04/28 07:42:34;;;;;;;12.40;4.15;;;12.10;66.10;;;;;;5071400;28;20020;-47
2022/04/28 07:45:00;;;;;;;10.15;4.53;;;12.00;67.90;;;;;;5071166;28;20021;-50
2022/04/28 07:47:28;;;;;;;12.50;4.18;;;11.80;68.40;;;;;;5071181;28;20537;-49
2022/04/28 07:49:55;;;;;;;10.70;4.25;;;11.90;69.30;;;;;;5071270;28;20090;-54
2022/04/28 07:52:20;;;;;;;13.55;4.20;;;11.90;69.00;;;;;;5071214;28;20056;-48
2022/04/28 07:54:46;;;;;;;10.77;4.30;;;12.20;69.40;;;;;;5070958;28;20059;-45
2022/04/28 07:57:12;;;;;;;9.30;4.20;;;12.50;67.30;;;;;;5071093;28;20074;-53
2022/04/28 07:59:39;;;;;;;13.13;4.40;;;12.70;67.10;;;;;;5070799;28;20029;-44
2022/04/28 08:02:05;;;;;;;12.73;4.13;;;13.20;65.40;;;;;;5071201;28;20025;-50
2022/04/28 08:04:32;;;;;;;10.57;3.78;;;13.50;64.90;;;;;;5070694;28;20036;-46
2022/04/28 08:06:58;;;;;;;9.50;3.72;;;13.40;62.60;;;;;;5072681;28;20020;-44
2022/04/28 08:09:23;;;;;;;13.70;3.97;;;13.80;64.50;;;;;;5075283;28;20025;-53
2022/04/28 08:11:49;;;;;;;11.68;4.55;;;14.00;62.30;;;;;;5075122;28;20032;-45
2022/04/28 08:14:15;;;;;;;10.73;4.63;;;14.30;63.10;;;;;;5074904;28;20400;-46
2022/04/28 08:16:41;;;;;;;11.82;3.75;;;14.40;61.50;;;;;;5075227;28;20060;-44
2022/04/28 08:19:09;;;;;;;10.10;4.70;;;14.50;61.00;;;;;;5074418;28;20025;-59
2022/04/28 08:21:34;;;;;;;7.90;3.97;;;14.70;61.70;;;;;;5072943;28;20048;-54
2022/04/28 08:24:00;;;;;;;12.95;4.07;;;14.60;60.40;;;;;;5074390;28;20021;-50
2022/04/28 08:26:26;;;;;;;8.70;4.35;;;14.70;61.70;;;;;;5074360;28;20043;-51
2022/04/28 08:28:51;;;;;;;12.73;4.45;;;14.80;61.00;;;;;;5074070;28;20531;-52
2022/04/28 08:31:17;;;;;;;11.48;4.50;;;14.20;59.60;;;;;;5073919;28;20095;-55
2022/04/28 08:33:43;;;;;;;12.50;4.30;;;14.40;61.20;;;;;;5073764;28;20437;-49
2022/04/28 08:36:08;;;;;;;6.00;3.80;;;14.80;61.30;;;;;;5074172;28;20075;-52
2022/04/28 08:38:34;;;;;;;12.77;4.63;;;15.10;59.80;;;;;;5074516;28;20100;-50
2022/04/28 08:41:02;;;;;;;11.93;4.53;;;14.80;59.10;;;;;;5074634;28;20123;-48
2022/04/28 08:43:35;;;;;;;15.57;4.53;;;14.70;59.60;;;;;;5074522;28;20028;-46
2022/04/28 08:48:54;;;;;;;10.10;4.60;;;14.90;62.40;;;;;;5074492;28;20036;-55
2022/04/28 08:51:21;;;;;;;12.73;5.32;;;14.90;59.20;;;;;;5074545;28;20029;-49
2022/04/28 08:53:50;;;;;;;11.45;4.90;;;14.90;58.60;;;;;;5074110;28;20029;-47
2022/04/28 08:56:17;;;;;;;13.25;5.20;;;14.80;59.60;;;;;;5074195;28;20040;-48
2022/04/28 08:58:43;;;;;;;9.50;5.32;;;14.60;59.20;;;;;;5073127;28;20111;-49
2022/04/28 09:01:09;;;;;;;9.90;4.75;;;14.50;59.70;;;;;;5074447;28;20051;-51
2022/04/28 09:03:35;;;;;;;9.52;5.20;;;14.80;61.50;;;;;;5074023;28;20384;-45
2022/04/28 09:06:28;;;;;;;7.93;4.60;;;14.50;59.60;;;;;;5074017;28;20036;-49
2022/04/28 09:08:55;;;;;;;10.90;5.30;;;14.50;59.60;;;;;;5055205;28;20044;-49
2022/04/28 09:11:23;;;;;;;13.13;5.70;;;14.30;61.10;;;;;;5053299;28;20484;-47
2022/04/28 09:14:09;;;;;;;12.45;5.63;;;14.00;60.00;;;;;;5053574;28;20033;-52
2022/04/28 09:16:41;;;;;;;9.50;5.22;;;13.70;62.00;;;;;;5053944;28;20039;-49
2022/04/28 09:19:07;;;;;;;10.05;6.07;;;13.50;61.90;;;;;;5055465;28;20070;-47
2022/04/28 09:21:34;;;;;;;11.50;6.05;;;13.40;62.80;;;;;;5073280;28;20052;-50
2022/04/28 09:24:00;;;;;;;12.35;5.10;;;13.50;62.90;;;;;;5073394;28;20069;-48
2022/04/28 09:26:27;;;;;;;11.05;5.47;;;13.70;64.70;;;;;;5073801;28;20052;-52
2022/04/28 09:28:57;;;;;;;10.88;5.70;;;14.10;64.30;;;;;;5073646;28;20029;-52
2022/04/28 09:31:23;;;;;;;12.07;5.32;;;14.40;62.10;;;;;;5072830;28;20032;-47
2022/04/28 09:33:49;;;;;;;11.32;4.72;;;14.60;61.90;;;;;;5073351;28;20035;-48
2022/04/28 09:36:14;;;;;;;11.13;4.80;;;15.20;60.10;;;;;;5073455;28;20032;-43
2022/04/28 09:38:40;;;;;;;10.18;4.95;;;15.60;59.90;;;;;;5073555;28;20028;-43
2022/04/28 09:43:58;;;;;;;10.18;4.90;;;15.90;56.50;;;;;;5072970;28;20044;-43
2022/04/28 09:46:24;;;;;;;13.68;5.25;;;15.80;56.30;;;;;;5067698;28;20109;-47
2022/04/28 09:48:52;;;;;;;12.93;5.88;;;15.70;57.20;;;;;;5072952;28;20037;-48
2022/04/28 09:51:25;;;;;;;10.13;5.30;;;15.70;57.20;;;;;;5073271;28;20033;-45
2022/04/28 09:53:51;;;;;;;10.55;5.15;;;15.80;57.70;;;;;;5072668;28;20020;-47
2022/04/28 09:56:24;;;;;;;10.82;4.70;;;15.70;56.90;;;;;;5071951;28;20492;-52
2022/04/28 09:58:51;;;;;;;8.73;4.70;;;15.90;57.60;;;;;;5072455;28;20029;-48
2022/04/28 10:01:18;;;;;;;9.40;5.00;;;15.80;57.50;;;;;;5072497;28;20024;-59
2022/04/28 10:03:44;;;;;;;9.35;4.38;;;15.90;58.50;;;;;;5072494;28;20016;-45
2022/04/28 10:06:11;;;;;;;11.57;5.03;;;15.80;58.00;;;;;;5072491;28;20074;-50
2022/04/28 10:08:38;;;;;;;13.60;5.32;;;15.60;57.90;;;;;;5072536;28;20040;-47
2022/04/28 10:11:09;;;;;;;10.35;4.88;;;15.20;56.80;;;;;;5072742;28;20025;-48
2022/04/28 10:13:35;;;;;;;11.07;5.45;;;15.20;59.40;;;;;;5072594;28;20112;-45
2022/04/28 10:16:05;;;;;;;12.18;5.40;;;15.00;58.60;;;;;;5072583;28;20130;-56
2022/04/28 10:18:44;;;;;;;15.65;5.35;;;15.10;58.80;;;;;;5072026;28;20518;-47
2022/04/28 10:21:14;;;;;;;10.75;5.25;;;15.30;58.70;;;;;;5072525;28;20049;-53
2022/04/28 10:35:03;;;;;;;7.38;4.60;;;18.80;51.50;;;;;;5074175;28;20109;-50
2022/04/28 10:37:40;;;;;;;8.05;4.53;;;19.40;50.90;;;;;;5072428;28;20081;-54
2022/04/28 10:40:11;;;;;;;10.35;5.18;;;19.40;48.50;;;;;;5072202;28;20032;-51
2022/04/28 10:42:37;;;;;;;12.55;6.22;;;18.80;47.90;;;;;;5072094;28;20031;-47
2022/04/28 10:45:13;;;;;;;8.90;5.28;;;18.10;48.60;;;;;;5071990;28;20036;-44
2022/04/28 10:47:41;;;;;;;9.35;4.93;;;17.70;50.30;;;;;;5072147;28;20021;-47
2022/04/28 10:50:26;;;;;;;14.32;5.57;;;17.60;54.40;;;;;;5072108;28;20029;-49
2022/04/28 10:53:01;;;;;;;14.45;5.72;;;17.60;51.20;;;;;;5071913;28;20024;-47
2022/04/28 10:55:40;;;;;;;12.25;5.05;;;17.40;51.70;;;;;;5071808;28;20040;-48
2022/04/28 10:58:26;;;;;;;;;;;17.70;53.30;;;;;;5072038;28;20024;-51
2022/04/28 11:00:53;;;;;;;9.85;5.18;;;17.50;52.00;;;;;;5071508;28;19904;-54
2022/04/28 11:03:46;;;;;;;11.55;5.32;;;17.10;52.90;;;;;;5071584;28;20357;-58
2022/04/28 11:06:14;;;;;;;12.80;5.65;;;17.50;52.30;;;;;;5071837;28;20039;-54
2022/04/28 11:08:51;;;;;;;15.05;5.50;;;18.20;51.90;;;;;;5071668;28;20024;-49
2022/04/28 11:11:16;;;;;;;10.93;5.55;;;18.70;51.40;;;;;;5071557;28;20028;-57
2022/04/28 11:13:48;;;;;;;11.73;5.53;;;19.00;47.60;;;;;;5071228;28;20033;-52
2022/04/28 11:16:16;;;;;;;11.25;5.63;;;19.10;49.50;;;;;;5071415;28;20119;-51
2022/04/28 11:18:43;;;;;;;9.30;5.57;;;18.90;47.00;;;;;;5071185;28;20040;-46
2022/04/28 11:21:10;;;;;;;11.68;5.97;;;18.40;48.10;;;;;;5071078;28;20045;-43
2022/04/28 11:23:41;;;;;;;10.20;5.50;;;18.40;49.80;;;;;;5071302;28;20031;-42
2022/04/28 11:26:08;;;;;;;14.98;6.10;;;18.30;49.30;;;;;;5070983;28;20035;-43
2022/04/28 11:28:35;;;;;;;12.40;5.90;;;18.10;50.30;;;;;;5069716;28;20024;-43
2022/04/28 11:31:01;;;;;;;15.20;6.00;;;18.30;49.70;;;;;;5071312;28;20483;-40
2022/04/28 11:33:27;;;;;;;11.15;5.72;;;18.20;50.90;;;;;;5071377;28;20081;-43
2022/04/28 11:35:53;;;;;;;11.32;6.22;;;18.10;50.30;;;;;;5069755;28;20036;-43
2022/04/28 11:38:27;;;;;;;11.60;6.00;;;18.30;51.80;;;;;;5078448;28;20024;-44
2022/04/28 11:41:03;;;;;;;15.90;6.38;;;17.80;50.90;;;;;;5091467;28;20051;-43
2022/04/28 11:43:36;;;;;;;14.52;5.88;;;17.70;51.00;;;;;;5091361;28;20028;-52
2022/04/28 11:46:01;;;;;;;12.10;6.10;;;18.00;52.20;;;;;;5088182;28;20102;-47
2022/04/28 11:48:29;;;;;;;11.05;5.60;;;17.90;50.90;;;;;;5069996;28;20052;-42
2022/04/28 11:51:03;;;;;;;10.30;5.35;;;18.10;51.60;;;;;;5070372;28;20484;-44
2022/04/28 11:53:40;;;;;;;12.05;6.13;;;17.90;50.40;;;;;;5071229;28;20025;-49
2022/04/28 11:56:20;;;;;;;12.10;6.07;;;17.90;52.20;;;;;;5070772;28;20036;-51
2022/04/28 11:58:48;;;;;;;14.18;6.32;;;17.90;51.80;;;;;;5070708;28;20027;-45
2022/04/28 12:01:14;;;;;;;13.27;5.90;;;17.60;51.30;;;;;;5070245;28;20044;-47
2022/04/28 12:03:47;;;;;;;11.45;5.95;;;17.60;51.30;;;;;;5070783;28;20040;-53
2022/04/28 12:06:15;;;;;;;14.52;6.05;;;17.50;51.20;;;;;;5070996;28;20102;-53
2022/04/28 12:08:46;;;;;;;9.50;6.18;;;17.50;52.70;;;;;;5070934;28;20790;-47
2022/04/28 12:19:27;;;;;;;12.85;6.38;;;18.10;52.30;;;;;;5070988;28;20029;-48
2022/04/28 12:22:00;;;;;;;;;;;18.00;50.20;;;;;;5071800;28;20060;-46
2022/04/28 12:24:32;;;;;;;11.05;5.70;;;18.00;50.30;;;;;;5070803;28;19908;-54
2022/04/28 12:27:07;;;;;;;11.73;6.00;;;17.70;49.90;;;;;;5070865;28;20056;-44
2022/04/28 12:29:46;;;;;;;10.27;6.10;;;17.40;53.10;;;;;;5070856;28;20039;-41
2022/04/28 12:32:14;;;;;;;10.75;6.18;;;17.50;52.60;;;;;;5070619;28;20031;-50
2022/04/28 12:34:40;;;;;;;12.15;7.32;;;17.80;51.90;;;;;;5070689;28;20048;-49
2022/04/28 12:37:05;;;;;;;11.02;6.90;;;17.70;51.20;;;;;;5070647;28;20075;-49
2022/04/28 12:39:31;;;;;;;12.02;6.60;;;17.70;51.20;;;;;;5070645;28;20100;-59
2022/04/28 12:41:57;;;;;;;12.02;6.70;;;17.70;52.20;;;;;;5070792;28;20056;-46
2022/04/28 12:44:23;;;;;;;15.57;6.80;;;17.50;51.80;;;;;;5070630;28;20032;-45
2022/04/28 12:46:51;;;;;;;16.05;7.82;;;17.60;51.40;;;;;;5070701;28;20518;-53
2022/04/28 12:49:17;;;;;;;11.90;7.13;;;17.70;51.60;;;;;;5070548;28;20032;-46
2022/04/28 12:51:47;;;;;;;12.93;6.80;;;17.70;51.10;;;;;;5070837;28;20028;-46
2022/04/28 12:54:23;;;;;;;10.35;6.38;;;17.60;50.80;;;;;;5074143;28;20070;-49
2022/04/28 12:56:57;;;;;;;14.93;7.07;;;17.90;52.70;;;;;;5074056;28;20033;-47
2022/04/28 12:59:27;;;;;;;10.95;7.15;;;18.00;51.30;;;;;;5074082;28;20028;-49
2022/04/28 13:01:54;;;;;;;13.63;7.05;;;17.70;51.30;;;;;;5074033;28;20021;-46
2022/04/28 13:04:22;;;;;;;11.20;7.05;;;17.60;51.10;;;;;;5074049;28;20107;-48
2022/04/28 13:06:50;;;;;;;12.02;6.85;;;17.40;52.80;;;;;;5074057;28;20106;-50
2022/04/28 13:09:16;;;;;;;14.80;6.80;;;17.10;52.30;;;;;;5073892;28;20434;-41
2022/04/28 13:11:43;;;;;;;12.50;7.00;;;17.10;52.20;;;;;;5073945;28;20024;-47
2022/04/28 13:14:11;;;;;;;13.15;7.43;;;16.80;52.90;;;;;;5073779;28;20059;-44
2022/04/28 13:16:38;;;;;;;13.48;7.63;;;16.50;54.10;;;;;;5073762;28;20043;-45
2022/04/28 13:19:04;;;;;;;13.25;6.65;;;16.60;55.40;;;;;;5071236;28;20028;-43
2022/04/28 13:21:31;;;;;;;11.63;6.57;;;16.80;55.10;;;;;;5072381;28;20102;-42
2022/04/28 13:23:58;;;;;;;11.30;6.93;;;16.80;53.20;;;;;;5070360;28;20017;-50
2022/04/28 13:26:26;;;;;;;15.32;6.70;;;16.50;54.00;;;;;;5073133;28;20064;-50